Time;durP1;ratioP1;P1;durP2;ratioP2;P2;SDS_P1;SDS_P2;PMS_P1;PMS_P2;Temp;Humidity;BMP_temperature;BMP_pressure;BME280_temperature;BME280_humidity;BME280_pressure;Samples;Min_cycle;Max_cycle;Signal;HPM_P1;HPM_P2
2023/12/01 00:00:09;;;;;;;11.63;6.90;;;5.10;64.70;7.10;100235.00;;;;5003521;28;20231;-75
2023/12/01 00:02:36;;;;;;;15.43;6.70;;;5.20;64.80;7.10;100236.00;;;;5010683;28;20227;-75
2023/12/01 00:05:06;;;;;;;13.85;7.13;;;5.10;64.70;7.10;100244.00;;;;5018086;28;20564;-75
2023/12/01 00:07:33;;;;;;;11.07;6.20;;;5.10;64.80;7.10;100240.00;;;;5009996;28;20877;-75
2023/12/01 00:10:01;;;;;;;14.20;6.97;;;5.10;64.80;7.10;100233.00;;;;5011845;28;20293;-75
2023/12/01 00:12:28;;;;;;;12.93;6.90;;;5.10;64.90;7.10;100236.00;;;;5011456;28;20668;-75
2023/12/01 00:14:55;;;;;;;14.43;7.18;;;5.10;65.10;7.20;100242.00;;;;5011225;28;20203;-75
2023/12/01 00:17:21;;;;;;;14.55;8.13;;;5.10;65.10;7.20;100247.00;;;;5020092;28;20728;-74
2023/12/01 00:19:48;;;;;;;13.80;7.60;;;5.10;65.00;7.10;100250.00;;;;5015387;28;20208;-74
2023/12/01 00:22:17;;;;;;;13.73;7.35;;;5.10;65.00;7.10;100248.00;;;;5007532;28;20201;-75
2023/12/01 00:24:43;;;;;;;15.25;7.45;;;5.10;65.00;7.10;100248.00;;;;5007163;28;20196;-75
2023/12/01 00:27:10;;;;;;;13.98;7.40;;;5.20;65.10;7.10;100254.00;;;;5008971;28;20208;-74
2023/12/01 00:29:37;;;;;;;16.48;8.35;;;5.20;65.10;7.10;100251.00;;;;5008660;28;20205;-75
2023/12/01 00:32:05;;;;;;;13.98;7.63;;;5.10;65.00;7.10;100253.00;;;;5007588;28;20231;-75
2023/12/01 00:34:32;;;;;;;14.32;8.40;;;5.10;64.90;7.10;100255.00;;;;5007843;28;20201;-74
2023/12/01 00:36:59;;;;;;;16.95;9.20;;;5.10;64.90;7.00;100255.00;;;;5007413;28;20221;-75
2023/12/01 00:39:27;;;;;;;17.42;9.82;;;5.10;64.80;7.00;100264.00;;;;5009034;28;20224;-75
2023/12/01 00:41:54;;;;;;;16.52;9.00;;;5.10;64.70;7.00;100265.00;;;;5008157;28;20205;-75
2023/12/01 00:44:21;;;;;;;16.95;8.95;;;5.10;64.80;7.00;100266.00;;;;5013005;28;20310;-75
2023/12/01 00:46:48;;;;;;;15.88;8.88;;;5.10;64.90;7.10;100263.00;;;;5014146;28;20215;-75
2023/12/01 00:49:15;;;;;;;18.40;10.13;;;5.10;65.00;7.10;100267.00;;;;5011884;28;20203;-75
2023/12/01 00:51:43;;;;;;;18.25;9.55;;;5.10;65.00;7.10;100267.00;;;;5021263;28;20220;-75
2023/12/01 00:54:11;;;;;;;16.92;9.57;;;5.10;64.90;7.00;100277.00;;;;5008077;28;20204;-75
2023/12/01 00:56:39;;;;;;;16.42;9.80;;;5.10;64.80;7.00;100274.00;;;;5013824;28;20192;-75
2023/12/01 00:59:06;;;;;;;18.20;9.85;;;5.10;64.90;7.10;100278.00;;;;5011526;28;20663;-75
2023/12/01 01:01:33;;;;;;;19.02;10.73;;;5.10;65.00;7.10;100275.00;;;;5014463;28;20235;-75
2023/12/01 01:04:00;;;;;;;20.67;11.38;;;5.10;65.00;7.10;100278.00;;;;5012553;28;20228;-75
2023/12/01 01:06:27;;;;;;;20.60;10.50;;;5.10;65.00;7.10;100281.00;;;;5027642;28;20555;-75
2023/12/01 01:08:54;;;;;;;21.30;11.45;;;5.10;65.00;7.10;100280.00;;;;5016343;28;20722;-75
2023/12/01 01:11:21;;;;;;;19.02;10.70;;;5.10;65.00;7.10;100279.00;;;;5008075;28;20212;-75
2023/12/01 01:13:49;;;;;;;21.55;11.60;;;5.10;64.90;7.10;100283.00;;;;5006076;28;20920;-75
2023/12/01 01:16:16;;;;;;;19.15;9.95;;;5.10;64.90;7.10;100284.00;;;;5022269;28;20207;-75
2023/12/01 01:18:43;;;;;;;18.85;10.27;;;5.20;65.00;7.20;100287.00;;;;5012634;28;20283;-75
2023/12/01 01:21:10;;;;;;;17.23;10.07;;;5.20;65.00;7.20;100292.00;;;;5007000;28;20702;-75
2023/12/01 01:23:37;;;;;;;18.58;10.57;;;5.20;65.10;7.20;100284.00;;;;5007855;28;20207;-74
2023/12/01 01:26:06;;;;;;;19.73;11.50;;;5.20;65.10;7.20;100285.00;;;;5024068;28;20200;-75
2023/12/01 01:28:33;;;;;;;21.55;10.70;;;5.20;65.10;7.30;100289.00;;;;5017017;28;20289;-75
2023/12/01 01:31:02;;;;;;;20.95;12.80;;;5.30;65.20;7.20;100277.00;;;;5006797;28;20197;-75
2023/12/01 01:33:30;;;;;;;21.52;11.27;;;5.30;65.80;7.30;100286.00;;;;5009175;28;20215;-75
2023/12/01 01:35:57;;;;;;;21.80;11.80;;;5.30;65.20;7.30;100294.00;;;;5003517;28;20205;-75
2023/12/01 01:38:24;;;;;;;18.70;10.90;;;5.30;65.10;7.30;100303.00;;;;5003523;28;20685;-75
2023/12/01 01:40:51;;;;;;;21.23;11.20;;;5.30;65.00;7.30;100289.00;;;;5016637;28;20193;-75
2023/12/01 01:43:21;;;;;;;17.85;9.75;;;5.30;64.90;7.20;100296.00;;;;5006840;28;20209;-75
2023/12/01 01:45:58;;;;;;;15.80;9.85;;;5.30;64.70;7.20;100308.00;;;;5009764;28;20262;-75
2023/12/01 01:48:26;;;;;;;17.02;10.55;;;5.30;64.70;7.20;100302.00;;;;5017646;28;20219;-75
2023/12/01 01:50:54;;;;;;;16.63;9.05;;;5.30;64.70;7.20;100309.00;;;;5015785;28;20186;-74
2023/12/01 01:53:22;;;;;;;16.80;8.98;;;5.30;64.70;7.20;100312.00;;;;5013773;28;20542;-74
2023/12/01 01:55:50;;;;;;;16.33;8.57;;;5.30;64.70;7.20;100315.00;;;;5005160;28;20196;-75
2023/12/01 01:58:17;;;;;;;14.60;8.32;;;5.20;64.50;7.20;100312.00;;;;5003514;28;20233;-75
2023/12/01 02:00:49;;;;;;;12.68;6.68;;;5.20;64.40;7.20;100310.00;;;;5000970;28;20390;-74
2023/12/01 02:03:16;;;;;;;15.40;8.40;;;5.20;64.40;7.10;100313.00;;;;5008392;28;20209;-75
2023/12/01 02:05:47;;;;;;;15.40;7.80;;;5.20;64.50;7.10;100316.00;;;;5007141;28;20661;-75
2023/12/01 02:08:25;;;;;;;14.82;7.63;;;5.20;64.40;7.10;100314.00;;;;5009241;28;20201;-74
2023/12/01 02:10:53;;;;;;;12.07;7.40;;;5.20;64.50;7.10;100314.00;;;;5024020;28;20208;-75
2023/12/01 02:13:21;;;;;;;14.68;7.65;;;5.20;64.70;7.20;100313.00;;;;5015855;28;20204;-75
2023/12/01 02:15:48;;;;;;;12.45;7.18;;;5.20;64.80;7.20;100322.00;;;;5004304;28;20205;-74
2023/12/01 02:18:34;;;;;;;13.63;7.72;;;5.20;64.70;7.00;100317.00;;;;5008051;28;20689;-75
2023/12/01 02:21:02;;;;;;;15.18;7.60;;;5.20;64.60;7.10;100320.00;;;;5008420;28;20282;-74
2023/12/01 02:23:31;;;;;;;16.30;8.48;;;5.20;64.50;7.10;100326.00;;;;5007661;28;20209;-74
2023/12/01 02:25:59;;;;;;;15.13;8.10;;;5.20;64.50;7.10;100325.00;;;;5011759;28;20221;-74
2023/12/01 02:28:25;;;;;;;14.85;7.95;;;5.20;64.50;7.10;100321.00;;;;5008627;28;20193;-75
2023/12/01 02:30:56;;;;;;;16.17;7.63;;;5.20;64.50;7.10;100326.00;;;;5022713;28;20258;-74
2023/12/01 02:33:23;;;;;;;16.02;8.25;;;5.10;64.50;7.10;100315.00;;;;5012397;28;20197;-74
2023/12/01 02:35:52;;;;;;;14.55;8.02;;;5.20;64.60;7.20;100322.00;;;;5009423;28;20251;-74
2023/12/01 02:38:21;;;;;;;15.27;8.30;;;5.20;64.70;7.20;100318.00;;;;5011137;28;20220;-74
2023/12/01 02:40:50;;;;;;;14.95;7.75;;;5.20;64.80;7.20;100317.00;;;;5013053;28;20204;-74
2023/12/01 02:43:18;;;;;;;13.90;8.63;;;5.20;64.80;7.20;100325.00;;;;5013274;28;20204;-75
2023/12/01 02:45:46;;;;;;;16.60;8.30;;;5.30;64.70;7.30;100318.00;;;;5027514;28;20663;-75
2023/12/01 02:48:13;;;;;;;18.75;8.07;;;5.20;64.60;7.30;100320.00;;;;5010279;28;20201;-74
2023/12/01 02:50:40;;;;;;;18.75;9.50;;;5.30;64.70;7.30;100331.00;;;;5013615;28;20746;-75
2023/12/01 02:53:08;;;;;;;16.02;8.15;;;5.30;64.70;7.30;100312.00;;;;5010762;28;20276;-74
2023/12/01 02:55:35;;;;;;;15.43;7.80;;;5.30;64.80;7.30;100310.00;;;;5007945;28;20200;-74
2023/12/01 02:58:04;;;;;;;20.17;9.75;;;5.30;64.80;7.40;100313.00;;;;5009321;28;20221;-74
2023/12/01 03:00:31;;;;;;;15.60;8.95;;;5.30;64.70;7.40;100308.00;;;;5007927;28;20302;-75
2023/12/01 03:02:58;;;;;;;17.13;8.35;;;5.40;64.80;7.40;100308.00;;;;5010362;28;21050;-75
2023/12/01 03:05:25;;;;;;;17.23;8.98;;;5.40;64.70;7.40;100312.00;;;;5010718;28;20415;-74
2023/12/01 03:07:52;;;;;;;18.50;9.45;;;5.40;64.70;7.50;100307.00;;;;5012351;28;20201;-75
2023/12/01 03:10:19;;;;;;;19.02;9.68;;;5.40;64.70;7.50;100307.00;;;;5021450;28;20203;-74
2023/12/01 03:12:46;;;;;;;18.73;9.70;;;5.40;64.80;7.50;100307.00;;;;5016130;28;20200;-74
2023/12/01 03:15:17;;;;;;;19.40;9.98;;;5.50;64.70;7.50;100308.00;;;;5007650;28;20205;-75
2023/12/01 03:17:45;;;;;;;22.67;12.13;;;5.50;64.70;7.50;100312.00;;;;5010563;28;20590;-74
2023/12/01 03:20:14;;;;;;;18.52;9.88;;;5.50;64.60;7.50;100320.00;;;;5015469;28;20214;-74
2023/12/01 03:22:44;;;;;;;21.48;10.60;;;5.50;64.70;7.50;100315.00;;;;5016944;28;20659;-74
2023/12/01 03:25:11;;;;;;;20.88;9.85;;;5.50;64.70;7.60;100320.00;;;;5017761;28;20761;-75
2023/12/01 03:27:42;;;;;;;23.63;12.02;;;5.60;64.70;7.60;100317.00;;;;5006671;28;20205;-75
2023/12/01 03:30:13;;;;;;;25.25;11.77;;;5.60;64.60;7.60;100314.00;;;;5010548;28;20590;-74
2023/12/01 03:32:45;;;;;;;27.70;12.13;;;5.60;64.50;7.50;100310.00;;;;5010835;28;20218;-74
2023/12/01 03:35:13;;;;;;;28.30;13.68;;;5.60;64.40;7.60;100309.00;;;;5015539;28;20196;-74
2023/12/01 03:37:41;;;;;;;27.63;12.98;;;5.60;64.30;7.60;100312.00;;;;5007099;28;20220;-74
2023/12/01 03:40:12;;;;;;;23.42;11.45;;;5.60;64.20;7.50;100317.00;;;;5015008;28;20205;-74
2023/12/01 03:42:42;;;;;;;24.73;12.05;;;5.60;64.20;7.60;100313.00;;;;5012391;28;20197;-75
2023/12/01 03:45:12;;;;;;;28.02;14.63;;;5.60;64.30;7.60;100318.00;;;;5005110;28;20220;-75
2023/12/01 03:47:39;;;;;;;30.17;14.02;;;5.60;64.30;7.60;100317.00;;;;5007428;28;20285;-74
2023/12/01 03:50:11;;;;;;;27.55;13.13;;;5.60;64.30;7.60;100335.00;;;;5008474;28;20204;-75
2023/12/01 03:52:41;;;;;;;27.42;13.20;;;5.60;64.30;7.60;100335.00;;;;5012069;28;20224;-74
2023/12/01 03:55:09;;;;;;;28.15;13.48;;;5.60;64.30;7.60;100340.00;;;;5014553;28;20244;-75
2023/12/01 03:57:36;;;;;;;28.88;13.85;;;5.60;64.30;7.60;100345.00;;;;5008711;28;20297;-75
2023/12/01 04:00:07;;;;;;;31.35;14.43;;;5.70;64.40;7.70;100343.00;;;;5008646;28;20201;-75
2023/12/01 04:02:38;;;;;;;28.52;13.13;;;5.70;64.40;7.70;100341.00;;;;5006924;28;20625;-75
2023/12/01 04:05:09;;;;;;;29.30;14.10;;;5.70;64.40;7.70;100342.00;;;;5009679;28;20200;-74
2023/12/01 04:07:38;;;;;;;33.22;13.82;;;5.70;64.40;7.70;100348.00;;;;5008751;28;20233;-75
2023/12/01 04:10:10;;;;;;;24.40;12.77;;;5.70;64.40;7.70;100353.00;;;;5021727;28;20201;-75
2023/12/01 04:12:44;;;;;;;30.70;14.30;;;5.70;64.40;7.70;100356.00;;;;5009237;28;20701;-74
2023/12/01 04:15:13;;;;;;;30.40;14.23;;;5.70;64.30;7.80;100359.00;;;;5008378;28;20207;-75
2023/12/01 04:17:43;;;;;;;32.60;14.48;;;5.80;64.20;7.80;100357.00;;;;5010141;28;20263;-75
2023/12/01 04:20:25;;;;;;;31.00;15.00;;;5.80;64.20;7.70;100358.00;;;;5009538;28;21031;-75
2023/12/01 04:22:53;;;;;;;28.92;12.95;;;5.80;64.10;7.80;100358.00;;;;5011692;28;20204;-75
2023/12/01 04:25:21;;;;;;;31.70;13.73;;;5.70;64.10;7.80;100358.00;;;;5010087;28;20208;-75
2023/12/01 04:27:49;;;;;;;26.67;12.50;;;5.80;64.20;7.80;100363.00;;;;5008634;28;20205;-75
2023/12/01 04:30:17;;;;;;;31.85;14.65;;;5.80;64.20;7.80;100371.00;;;;5009816;28;20252;-75
2023/12/01 04:32:46;;;;;;;30.55;13.45;;;5.80;64.30;7.80;100368.00;;;;5012191;28;20203;-74
2023/12/01 04:35:15;;;;;;;32.83;13.10;;;5.80;64.20;7.80;100374.00;;;;5007314;28;20201;-74
2023/12/01 04:37:42;;;;;;;29.52;13.98;;;5.80;64.10;7.80;100374.00;;;;5007957;28;20209;-75
2023/12/01 04:40:14;;;;;;;34.35;15.18;;;5.80;64.10;7.80;100376.00;;;;5008786;28;20204;-75
2023/12/01 04:42:44;;;;;;;30.80;14.05;;;5.80;64.00;7.80;100378.00;;;;5010503;28;20192;-74
2023/12/01 04:45:12;;;;;;;37.08;15.40;;;5.80;64.00;7.80;100382.00;;;;5012574;28;20224;-75
2023/12/01 04:47:41;;;;;;;34.53;15.07;;;5.80;64.10;7.80;100373.00;;;;5005503;28;20204;-75
2023/12/01 04:50:13;;;;;;;29.02;13.07;;;5.80;64.10;7.80;100379.00;;;;5007704;28;20203;-75
2023/12/01 04:52:46;;;;;;;32.88;14.40;;;5.80;64.10;7.80;100386.00;;;;5005491;28;20197;-75
2023/12/01 04:55:15;;;;;;;36.75;14.93;;;5.80;64.10;7.80;100384.00;;;;5008231;28;20193;-75
2023/12/01 04:57:45;;;;;;;30.33;13.50;;;5.80;64.10;7.80;100379.00;;;;5007285;28;20197;-75
2023/12/01 05:00:21;;;;;;;28.35;13.50;;;5.80;64.10;7.80;100394.00;;;;5004869;28;20209;-75
2023/12/01 05:02:50;;;;;;;31.10;14.02;;;5.80;64.10;7.90;100383.00;;;;5003907;28;21055;-75
2023/12/01 05:05:18;;;;;;;29.45;13.23;;;5.80;64.10;7.80;100389.00;;;;5008877;28;20205;-74
2023/12/01 05:07:49;;;;;;;28.23;13.50;;;5.90;64.10;7.80;100385.00;;;;5010648;28;20201;-74
2023/12/01 05:10:17;;;;;;;30.92;13.10;;;5.80;64.10;7.80;100390.00;;;;5009194;28;20274;-74
2023/12/01 05:12:49;;;;;;;27.55;13.18;;;5.90;64.00;7.90;100398.00;;;;5009645;28;20296;-75
2023/12/01 05:15:17;;;;;;;31.65;13.88;;;5.90;64.10;7.90;100396.00;;;;5007272;28;20593;-74
2023/12/01 05:17:45;;;;;;;28.98;13.07;;;5.90;64.20;7.90;100399.00;;;;4998286;28;20578;-75
2023/12/01 05:20:16;;;;;;;32.50;14.05;;;5.90;64.10;7.90;100387.00;;;;5008056;28;20670;-75
2023/12/01 05:22:47;;;;;;;28.60;13.45;;;5.90;64.10;7.90;100390.00;;;;5007588;28;20197;-75
2023/12/01 05:25:16;;;;;;;26.95;13.73;;;5.90;64.00;7.90;100397.00;;;;5006290;28;20201;-75
2023/12/01 05:27:45;;;;;;;29.92;14.68;;;5.90;64.00;7.90;100405.00;;;;5007228;28;20523;-75
2023/12/01 05:30:14;;;;;;;32.90;15.30;;;5.90;64.00;7.90;100395.00;;;;5008687;28;20208;-75
2023/12/01 05:32:43;;;;;;;33.63;14.93;;;5.90;64.10;7.90;100398.00;;;;5005388;28;20200;-75
2023/12/01 05:35:13;;;;;;;33.42;14.90;;;5.90;64.10;8.00;100403.00;;;;5006435;28;20618;-75
2023/12/01 05:37:41;;;;;;;35.08;15.10;;;6.00;64.10;8.00;100401.00;;;;5006767;28;20204;-75
2023/12/01 05:40:14;;;;;;;33.38;15.73;;;5.90;64.00;8.00;100406.00;;;;5012367;28;20244;-75
2023/12/01 05:42:42;;;;;;;31.35;15.13;;;5.90;64.00;8.00;100405.00;;;;5003546;28;20201;-75
2023/12/01 05:45:11;;;;;;;32.30;14.55;;;6.00;64.10;8.00;100411.00;;;;4995933;28;20213;-75
2023/12/01 05:47:44;;;;;;;29.42;15.07;;;6.00;64.10;7.90;100418.00;;;;5001492;28;20205;-75
2023/12/01 05:50:14;;;;;;;34.38;14.75;;;6.00;64.20;8.00;100416.00;;;;5007586;28;20200;-75
2023/12/01 05:52:42;;;;;;;29.48;12.73;;;6.00;64.20;8.00;100417.00;;;;5006659;28;20223;-75
2023/12/01 05:55:15;;;;;;;29.77;13.13;;;6.00;64.20;8.00;100424.00;;;;5007606;28;20189;-76
2023/12/01 05:57:46;;;;;;;29.27;13.93;;;6.00;64.10;8.00;100421.00;;;;5007940;28;20205;-75
2023/12/01 06:00:17;;;;;;;31.15;14.18;;;6.00;64.10;8.00;100420.00;;;;5010368;28;20766;-75
2023/12/01 06:02:45;;;;;;;31.42;14.00;;;6.00;64.10;8.00;100429.00;;;;5013552;28;20225;-76
2023/12/01 06:05:13;;;;;;;29.77;13.88;;;6.00;64.10;8.00;100437.00;;;;5012470;28;20284;-76
2023/12/01 06:07:45;;;;;;;30.77;14.13;;;6.00;64.10;8.00;100434.00;;;;5011406;28;20213;-75
2023/12/01 06:10:14;;;;;;;31.08;13.48;;;6.00;64.10;8.00;100439.00;;;;5011090;28;20750;-75
2023/12/01 06:12:41;;;;;;;30.08;13.00;;;6.00;64.10;8.00;100442.00;;;;5011270;28;20196;-75
2023/12/01 06:15:10;;;;;;;30.83;14.00;;;6.00;64.20;8.00;100446.00;;;;5012746;28;20213;-75
2023/12/01 06:17:38;;;;;;;30.20;13.65;;;6.00;64.10;8.10;100441.00;;;;4996392;28;20725;-75
2023/12/01 06:20:16;;;;;;;29.25;13.18;;;6.00;64.20;8.10;100441.00;;;;5005318;28;20719;-75
2023/12/01 06:22:48;;;;;;;26.48;13.02;;;6.00;64.20;8.10;100444.00;;;;5002455;28;20236;-75
2023/12/01 06:25:17;;;;;;;29.42;13.73;;;6.00;64.20;8.10;100448.00;;;;5005302;28;20208;-75
2023/12/01 06:27:45;;;;;;;32.13;14.38;;;6.10;64.30;8.10;100453.00;;;;4996071;28;20204;-75
2023/12/01 06:30:14;;;;;;;28.95;13.15;;;6.00;64.20;8.10;100451.00;;;;5006098;28;20206;-75
2023/12/01 06:32:41;;;;;;;28.38;12.27;;;6.00;64.30;8.10;100450.00;;;;5002016;28;20200;-75
2023/12/01 06:35:11;;;;;;;31.23;14.23;;;6.10;64.30;8.10;100456.00;;;;5002286;28;20674;-75
2023/12/01 06:37:39;;;;;;;30.77;13.48;;;6.10;64.30;8.10;100457.00;;;;5001031;28;20247;-75
2023/12/01 06:40:11;;;;;;;27.38;13.18;;;6.10;64.30;8.10;100459.00;;;;5002315;28;20239;-75
2023/12/01 06:42:42;;;;;;;26.30;14.02;;;6.10;64.30;8.10;100459.00;;;;5001615;28;20189;-75
2023/12/01 06:45:12;;;;;;;31.38;14.35;;;6.10;64.20;8.10;100464.00;;;;5006542;28;20213;-75
2023/12/01 06:47:42;;;;;;;28.52;13.68;;;6.10;64.10;8.10;100465.00;;;;5009644;28;20197;-75
2023/12/01 06:50:14;;;;;;;25.17;12.75;;;6.10;64.20;8.10;100462.00;;;;5010093;28;20212;-75
2023/12/01 06:52:42;;;;;;;26.77;13.50;;;6.10;64.20;8.10;100467.00;;;;5008824;28;20618;-74
2023/12/01 06:55:10;;;;;;;24.65;12.50;;;6.10;64.20;8.10;100467.00;;;;5010928;28;20201;-75
2023/12/01 06:57:37;;;;;;;27.95;13.60;;;6.10;64.20;8.10;100465.00;;;;5013697;28;20582;-75
2023/12/01 07:00:08;;;;;;;27.75;13.38;;;6.10;64.10;8.10;100467.00;;;;5017100;28;20220;-75
2023/12/01 07:02:38;;;;;;;27.38;12.77;;;6.10;64.20;8.10;100472.00;;;;5020390;28;20711;-77
2023/12/01 07:05:07;;;;;;;25.27;11.80;;;6.20;64.10;8.10;100475.00;;;;5008699;28;20209;-75
2023/12/01 07:07:37;;;;;;;24.42;11.07;;;6.10;64.20;8.10;100476.00;;;;4999894;28;20686;-75
2023/12/01 07:10:07;;;;;;;25.42;12.30;;;6.20;64.20;8.10;100476.00;;;;5007532;28;20204;-76
2023/12/01 07:12:34;;;;;;;26.13;12.15;;;6.10;64.20;8.10;100479.00;;;;5014974;28;20204;-76
2023/12/01 07:15:02;;;;;;;23.17;12.13;;;6.20;64.20;8.10;100480.00;;;;5016985;28;20219;-76
2023/12/01 07:17:30;;;;;;;21.38;10.57;;;6.10;64.20;8.10;100489.00;;;;5023975;28;20288;-75
2023/12/01 07:19:57;;;;;;;21.05;11.32;;;6.10;64.20;8.10;100497.00;;;;5007710;28;20862;-76
2023/12/01 07:22:24;;;;;;;20.40;10.73;;;6.10;64.00;8.10;100496.00;;;;5011320;28;20284;-75
2023/12/01 07:24:54;;;;;;;22.50;10.70;;;6.10;64.00;8.10;100496.00;;;;5009320;28;20677;-76
2023/12/01 07:27:25;;;;;;;23.40;10.85;;;6.10;64.00;8.10;100491.00;;;;5008111;28;20196;-75
2023/12/01 07:29:52;;;;;;;22.20;11.30;;;6.10;63.90;8.10;100498.00;;;;5028016;28;20204;-75
2023/12/01 07:32:19;;;;;;;21.23;10.50;;;6.10;63.90;8.10;100504.00;;;;5023548;28;20205;-75
2023/12/01 07:34:48;;;;;;;22.23;10.13;;;6.20;63.80;8.10;100505.00;;;;5027929;28;20402;-76
2023/12/01 07:37:15;;;;;;;21.00;10.07;;;6.10;63.80;8.10;100507.00;;;;5016257;28;20196;-75
2023/12/01 07:39:41;;;;;;;18.45;9.88;;;6.10;63.80;8.10;100515.00;;;;5006612;28;20228;-76
2023/12/01 07:42:08;;;;;;;20.38;9.98;;;6.20;63.80;8.10;100517.00;;;;5011074;28;20205;-76
2023/12/01 07:44:35;;;;;;;17.80;9.05;;;6.10;63.80;8.20;100518.00;;;;5003443;28;20223;-75
2023/12/01 07:47:05;;;;;;;19.17;8.73;;;6.20;63.80;8.20;100528.00;;;;5021866;28;20209;-76
2023/12/01 07:49:32;;;;;;;19.20;9.80;;;6.20;63.90;8.20;100523.00;;;;5012777;28;20283;-75
2023/12/01 07:52:01;;;;;;;18.70;9.40;;;6.20;63.80;8.20;100526.00;;;;5009965;28;20209;-75
2023/12/01 07:54:29;;;;;;;15.80;9.05;;;6.20;63.80;8.20;100519.00;;;;5012623;28;20193;-75
2023/12/01 07:56:56;;;;;;;22.55;10.23;;;6.20;63.80;8.20;100528.00;;;;5011873;28;20201;-76
2023/12/01 07:59:23;;;;;;;20.05;9.20;;;6.20;63.60;8.20;100534.00;;;;5008089;28;20232;-74
2023/12/01 08:01:50;;;;;;;20.08;10.13;;;6.20;63.50;8.20;100526.00;;;;5026040;28;20234;-74
2023/12/01 08:04:17;;;;;;;18.35;8.65;;;6.20;63.40;8.20;100538.00;;;;5019682;28;20279;-74
2023/12/01 08:06:43;;;;;;;20.55;9.25;;;6.20;63.30;8.20;100534.00;;;;5012641;28;20204;-75
2023/12/01 08:09:16;;;;;;;18.25;9.25;;;6.20;63.40;8.20;100531.00;;;;5016063;28;20654;-75
2023/12/01 08:11:43;;;;;;;19.73;9.13;;;6.20;63.20;8.20;100542.00;;;;5010517;28;20267;-74
2023/12/01 08:14:11;;;;;;;19.77;9.35;;;6.20;63.10;8.20;100530.00;;;;5010011;28;20758;-74
2023/12/01 08:16:38;;;;;;;18.63;9.05;;;6.20;63.10;8.20;100535.00;;;;5023640;28;20227;-75
2023/12/01 08:19:06;;;;;;;15.57;8.93;;;6.20;63.00;8.20;100538.00;;;;5009012;28;20225;-74
2023/12/01 08:21:34;;;;;;;16.90;9.40;;;6.20;62.80;8.20;100539.00;;;;5014233;28;20201;-74
2023/12/01 08:24:01;;;;;;;17.90;8.27;;;6.20;62.90;8.20;100538.00;;;;5007757;28;20259;-75
2023/12/01 08:26:29;;;;;;;16.80;8.95;;;6.20;62.80;8.20;100534.00;;;;5022499;28;20283;-74
2023/12/01 08:28:56;;;;;;;19.30;10.60;;;6.20;62.70;8.20;100540.00;;;;5016766;28;20196;-75
2023/12/01 08:31:23;;;;;;;17.83;8.68;;;6.20;62.70;8.20;100541.00;;;;5010522;28;20584;-74
2023/12/01 08:33:50;;;;;;;17.35;9.15;;;6.20;62.60;8.20;100543.00;;;;5007695;28;20259;-75
2023/12/01 08:36:18;;;;;;;13.45;8.13;;;6.20;62.60;8.20;100544.00;;;;5014746;28;20208;-74
2023/12/01 08:38:45;;;;;;;16.40;8.18;;;6.20;62.60;8.20;100546.00;;;;5008000;28;20200;-75
2023/12/01 08:41:12;;;;;;;15.80;8.55;;;6.20;62.50;8.20;100545.00;;;;5009306;28;20228;-75
2023/12/01 08:43:40;;;;;;;18.10;8.38;;;6.20;62.50;8.20;100554.00;;;;5011197;28;20283;-75
2023/12/01 08:46:08;;;;;;;22.52;9.68;;;6.20;62.30;8.20;100553.00;;;;5014228;28;20205;-75
2023/12/01 08:48:35;;;;;;;17.55;8.52;;;6.20;62.30;8.20;100548.00;;;;5008294;28;20719;-74
2023/12/01 08:51:02;;;;;;;18.75;8.13;;;6.20;62.40;8.20;100556.00;;;;5002966;28;20208;-74
2023/12/01 08:53:31;;;;;;;13.60;7.15;;;6.20;62.20;8.20;100553.00;;;;5001530;28;20325;-74
2023/12/01 08:55:58;;;;;;;14.38;7.78;;;6.20;62.20;8.20;100554.00;;;;5006321;28;20196;-74
2023/12/01 08:58:25;;;;;;;16.30;7.75;;;6.20;62.10;8.10;100556.00;;;;5000751;28;20199;-74
2023/12/01 09:00:53;;;;;;;16.38;7.78;;;6.10;61.70;8.10;100552.00;;;;5013128;28;20236;-75
2023/12/01 09:03:20;;;;;;;16.13;7.55;;;6.20;61.70;8.10;100558.00;;;;5006312;28;20758;-75
2023/12/01 09:05:48;;;;;;;16.40;8.25;;;6.10;61.60;8.10;100556.00;;;;5013466;28;20374;-74
2023/12/01 09:08:15;;;;;;;14.25;8.00;;;6.10;61.60;8.10;100561.00;;;;5010333;28;20243;-74
2023/12/01 09:10:43;;;;;;;15.35;7.38;;;6.10;61.60;8.00;100559.00;;;;5012218;28;20203;-74
2023/12/01 09:13:09;;;;;;;14.52;7.57;;;6.10;61.40;8.00;100565.00;;;;5016011;28;20207;-77
2023/12/01 09:15:36;;;;;;;15.80;7.65;;;6.00;61.20;7.90;100561.00;;;;5016721;28;20200;-78
2023/12/01 09:18:05;;;;;;;14.68;7.25;;;6.00;61.20;7.90;100565.00;;;;5027646;28;20208;-77
2023/12/01 09:20:33;;;;;;;13.48;7.75;;;6.00;61.10;7.90;100563.00;;;;5027599;28;20216;-74
2023/12/01 09:23:00;;;;;;;12.82;6.75;;;5.90;61.00;7.80;100568.00;;;;5024700;28;20624;-74
2023/12/01 09:25:27;;;;;;;14.55;6.25;;;5.90;60.90;7.80;100583.00;;;;5012781;28;20299;-74
2023/12/01 09:27:53;;;;;;;12.88;5.88;;;5.80;60.90;7.80;100572.00;;;;5005475;28;20192;-75
2023/12/01 09:30:21;;;;;;;13.15;6.22;;;5.80;61.20;7.80;100587.00;;;;5007160;28;20223;-74
2023/12/01 09:32:48;;;;;;;14.02;7.18;;;5.80;61.30;7.80;100592.00;;;;5007638;28;20209;-74
2023/12/01 09:35:19;;;;;;;14.25;6.95;;;5.80;61.50;7.80;100582.00;;;;5016469;28;20196;-74
2023/12/01 09:37:46;;;;;;;12.90;6.72;;;5.80;61.40;7.90;100592.00;;;;5030981;28;20200;-75
2023/12/01 09:40:13;;;;;;;12.25;7.30;;;5.80;61.70;7.90;100599.00;;;;5026492;28;20578;-75
2023/12/01 09:42:42;;;;;;;13.35;6.75;;;5.80;61.80;8.00;100597.00;;;;5029513;28;20211;-75
2023/12/01 09:45:10;;;;;;;14.65;6.70;;;5.80;61.80;8.00;100607.00;;;;5018903;28;20236;-74
2023/12/01 09:47:49;;;;;;;13.13;6.55;;;5.90;61.90;8.00;100602.00;;;;5010894;28;20204;-78
2023/12/01 09:50:19;;;;;;;14.48;6.88;;;5.90;61.90;8.10;100607.00;;;;5012729;28;20247;-77
2023/12/01 09:52:46;;;;;;;14.77;6.95;;;6.00;62.00;8.20;100605.00;;;;5010135;28;20204;-77
2023/12/01 09:55:13;;;;;;;12.55;6.18;;;6.00;62.00;8.20;100600.00;;;;5016202;28;20887;-77
2023/12/01 09:57:42;;;;;;;11.80;5.75;;;6.10;62.10;8.20;100605.00;;;;5017899;28;20196;-74
2023/12/01 10:00:12;;;;;;;12.52;6.22;;;6.20;62.00;8.30;100599.00;;;;5005533;28;20216;-74
2023/12/01 10:02:39;;;;;;;11.85;6.07;;;6.20;62.00;8.40;100601.00;;;;5023792;28;20227;-74
2023/12/01 10:05:08;;;;;;;12.75;6.25;;;6.20;61.90;8.40;100605.00;;;;5016721;28;20215;-74
2023/12/01 10:07:36;;;;;;;16.02;6.47;;;6.30;61.80;8.40;100595.00;;;;5032462;28;20196;-74
2023/12/01 10:10:20;;;;;;;10.80;5.80;;;6.30;61.60;8.30;100608.00;;;;5001076;28;20196;-75
2023/12/01 10:12:58;;;;;;;12.73;5.95;;;6.40;61.40;8.40;100601.00;;;;5029674;28;20339;-75
2023/12/01 10:15:27;;;;;;;15.00;6.97;;;6.40;61.40;8.40;100609.00;;;;5017172;28;20294;-75
2023/12/01 10:17:55;;;;;;;14.15;7.40;;;6.40;61.30;8.40;100602.00;;;;5010843;28;20197;-75
2023/12/01 10:20:22;;;;;;;12.13;6.18;;;6.40;61.20;8.40;100607.00;;;;5005893;28;20737;-75
2023/12/01 10:22:51;;;;;;;11.52;5.93;;;6.40;61.10;8.40;100607.00;;;;5010224;28;20636;-75
2023/12/01 10:25:18;;;;;;;12.38;5.43;;;6.40;60.90;8.40;100601.00;;;;5005302;28;20209;-75
2023/12/01 10:27:55;;;;;;;10.70;5.88;;;6.30;60.90;8.30;100593.00;;;;5022139;28;20693;-75
2023/12/01 10:30:23;;;;;;;13.25;6.53;;;6.30;60.90;8.40;100599.00;;;;5010858;28;20235;-77
2023/12/01 10:32:51;;;;;;;11.70;6.25;;;6.30;61.00;8.40;100603.00;;;;5010506;28;20205;-77
2023/12/01 10:35:18;;;;;;;12.85;6.03;;;6.30;60.90;8.40;100601.00;;;;5011973;28;20201;-75
2023/12/01 10:37:47;;;;;;;12.00;6.20;;;6.30;60.90;8.40;100606.00;;;;5011036;28;20205;-76
2023/12/01 10:40:17;;;;;;;12.02;6.30;;;6.30;60.70;8.30;100603.00;;;;5007553;28;20225;-76
2023/12/01 10:42:48;;;;;;;10.95;5.97;;;6.30;60.50;8.30;100607.00;;;;5010421;28;20679;-76
2023/12/01 10:45:17;;;;;;;11.55;6.25;;;6.30;60.40;8.20;100610.00;;;;5009246;28;20235;-76
2023/12/01 10:47:47;;;;;;;12.45;5.55;;;6.20;60.20;8.20;100607.00;;;;5009816;28;20667;-76
2023/12/01 10:50:17;;;;;;;11.13;5.60;;;6.20;60.40;8.20;100609.00;;;;5010325;28;20659;-75
2023/12/01 10:52:47;;;;;;;14.10;6.60;;;6.20;60.40;8.20;100610.00;;;;5010578;28;20193;-75
2023/12/01 10:55:15;;;;;;;11.82;6.00;;;6.10;60.30;8.10;100614.00;;;;5008203;28;20574;-75